Time;durP1;ratioP1;P1;durP2;ratioP2;P2;SDS_P1;SDS_P2;PMS_P1;PMS_P2;Temp;Humidity;BMP_temperature;BMP_pressure;BME280_temperature;BME280_humidity;BME280_pressure;Samples;Min_cycle;Max_cycle;Signal;HPM_P1;HPM_P2
2023/01/31 00:01:04;;;;;;;;;30.00;24.67;;;;;5.64;65.90;102802.13;2031480;28;3582516;-76
2023/01/31 00:02:16;;;;;;;;;28.33;25.33;;;;;5.62;66.09;102793.41;2023996;28;3591882;-76
2023/01/31 00:03:28;;;;;;;;;32.60;24.60;;;;;5.61;66.13;102791.63;2021527;28;3592891;-76
2023/01/31 00:04:40;;;;;;;;;26.60;24.00;;;;;5.59;66.08;102788.09;2010729;28;3576230;-75
2023/01/31 00:05:51;;;;;;;;;24.67;23.33;;;;;5.58;65.91;102782.00;2026350;28;3579757;-76
2023/01/31 00:07:03;;;;;;;;;35.20;28.20;;;;;5.58;66.26;102787.22;2036713;28;3611665;-76
2023/01/31 00:08:16;;;;;;;;;34.20;24.00;;;;;5.56;66.07;102783.69;2014759;28;3603370;-76
2023/01/31 00:09:28;;;;;;;;;30.00;28.67;;;;;5.55;66.17;102787.19;2005789;28;3597139;-76
2023/01/31 00:10:40;;;;;;;;;28.67;26.33;;;;;5.54;65.78;102785.41;2002950;28;3589807;-76
2023/01/31 00:11:52;;;;;;;;;29.00;24.00;;;;;5.54;65.85;102779.31;2010224;28;3595067;-76
2023/01/31 00:13:03;;;;;;;;;28.00;24.67;;;;;5.53;65.91;102781.06;2015618;28;3579393;-76
2023/01/31 00:14:18;;;;;;;;;32.00;27.00;;;;;5.52;65.60;102774.06;2032940;28;3601298;-76
2023/01/31 00:15:29;;;;;;;;;29.33;24.67;;;;;5.52;65.70;102779.28;1983574;28;3579390;-76
2023/01/31 00:16:41;;;;;;;;;30.67;27.33;;;;;5.51;66.10;102780.13;2028757;28;3604413;-76
2023/01/31 00:17:54;;;;;;;;;28.60;25.20;;;;;5.49;65.88;102785.31;2029283;28;3591889;-76
2023/01/31 00:19:05;;;;;;;;;29.00;25.67;;;;;5.48;66.20;102786.16;2010914;28;3578384;-76
2023/01/31 00:20:17;;;;;;;;;35.33;28.33;;;;;5.47;65.99;102796.56;2024234;28;3613771;-76
2023/01/31 00:21:30;;;;;;;;;35.33;29.33;;;;;5.47;65.87;102783.50;1997523;28;3607896;-76
2023/01/31 00:22:41;;;;;;;;;32.00;30.00;;;;;5.46;65.82;102782.63;1992789;28;2853381;-76
2023/01/31 00:23:54;;;;;;;;;32.20;26.20;;;;;5.45;65.91;102774.78;2011612;28;3601268;-76
2023/01/31 00:25:06;;;;;;;;;30.00;26.67;;;;;5.45;66.12;102774.78;2014094;28;3591932;-76
2023/01/31 00:26:29;;;;;;;;;30.00;28.33;;;;;5.45;65.91;102772.16;2016233;28;3600243;-76
2023/01/31 00:27:40;;;;;;;;;20.00;19.33;;;;;5.44;65.76;102770.41;2012311;28;2827326;-76
2023/01/31 00:28:54;;;;;;;;;31.33;27.67;;;;;5.43;66.00;102776.47;2015390;28;3581498;-76
2023/01/31 00:30:06;;;;;;;;;27.00;25.00;;;;;5.41;65.99;102771.22;2014109;28;3580450;-76
2023/01/31 00:31:18;;;;;;;;;29.00;25.00;;;;;5.40;66.03;102772.97;2012791;28;2834632;-76
2023/01/31 00:32:29;;;;;;;;;30.00;29.00;;;;;5.39;66.33;102780.72;2016806;28;2849207;-76
2023/01/31 00:33:42;;;;;;;;;34.33;30.00;;;;;5.38;66.02;102771.16;2007838;28;3606437;-76
2023/01/31 00:34:53;;;;;;;;;23.00;20.00;;;;;5.36;66.00;102765.91;1983437;28;3574201;-76
2023/01/31 00:36:08;;;;;;;;;24.00;22.00;;;;;5.35;65.88;102768.47;2024392;28;3573176;-76
2023/01/31 00:37:20;;;;;;;;;30.50;25.00;;;;;5.34;65.85;102775.41;2008344;28;2844366;-76
2023/01/31 00:38:32;;;;;;;;;28.00;27.00;;;;;5.34;66.11;102771.94;2013970;28;3581876;-76
2023/01/31 00:39:44;;;;;;;;;28.33;23.67;;;;;5.32;66.08;102764.06;2018992;28;3591917;-76
2023/01/31 00:40:56;;;;;;;;;28.67;24.33;;;;;5.30;65.36;102773.59;2040817;28;3580459;-76
2023/01/31 00:42:07;;;;;;;;;22.33;22.33;;;;;5.28;65.67;102773.53;2039193;28;3580439;-76
2023/01/31 00:43:20;;;;;;;;;30.00;26.67;;;;;5.27;65.98;102774.41;2036778;28;3577303;-76
2023/01/31 00:44:31;;;;;;;;;27.00;24.33;;;;;5.26;65.83;102771.78;2017237;28;3587735;-76
2023/01/31 00:45:43;;;;;;;;;31.33;26.33;;;;;5.25;65.80;102772.63;2027240;28;3598159;-76
2023/01/31 00:46:55;;;;;;;;;28.00;22.00;;;;;5.24;65.98;102782.16;2007898;28;3571082;-76
2023/01/31 00:48:07;;;;;;;;;30.33;21.33;;;;;5.23;65.69;102775.19;2024183;28;3596065;-76
2023/01/31 00:49:19;;;;;;;;;35.67;28.67;;;;;5.21;65.86;102783.81;1999144;28;3609602;-76
2023/01/31 00:50:31;;;;;;;;;31.60;28.20;;;;;5.18;65.53;102774.22;2009437;28;3598103;-76
2023/01/31 00:51:44;;;;;;;;;31.43;23.86;;;;;5.16;65.90;102768.94;2041867;28;3572131;-76
2023/01/31 00:52:56;;;;;;;;;28.80;25.00;;;;;5.17;65.62;102775.03;2010044;28;3586125;-76
2023/01/31 00:54:08;;;;;;;;;34.00;27.00;;;;;5.14;65.99;102772.34;2026326;28;3605427;-76
2023/01/31 00:55:20;;;;;;;;;26.33;20.00;;;;;5.12;65.88;102767.13;2030061;28;3584635;-76
2023/01/31 00:56:32;;;;;;;;;24.67;24.00;;;;;5.11;66.21;102767.09;2031951;28;3578867;-76
2023/01/31 00:57:43;;;;;;;;;33.00;27.00;;;;;5.09;66.03;102771.41;2032505;28;3606492;-76
2023/01/31 00:58:55;;;;;;;;;22.00;21.00;;;;;5.09;66.27;102774.00;2032664;28;2848208;-76
2023/01/31 01:00:07;;;;;;;;;24.33;20.67;;;;;5.07;66.04;102779.16;2000952;28;3589780;-76
2023/01/31 01:01:22;;;;;;;;;26.00;24.50;;;;;5.05;65.96;102779.13;2016449;28;2840840;-76
2023/01/31 01:02:33;;;;;;;;;25.33;24.00;;;;;5.04;65.88;102771.25;1991370;28;3580425;-76
2023/01/31 01:03:45;;;;;;;;;22.60;16.40;;;;;5.03;65.98;102775.63;2037359;28;3553343;-76
2023/01/31 01:04:57;;;;;;;;;25.00;21.00;;;;;5.02;66.12;102768.63;2023783;28;3587727;-76
2023/01/31 01:06:11;;;;;;;;;27.00;22.17;;;;;5.01;66.11;102772.06;2043389;28;2848133;-76
2023/01/31 01:07:21;;;;;;;;;30.00;27.50;;;;;5.00;65.77;102759.91;1987659;28;2852652;-76
2023/01/31 01:08:34;;;;;;;;;30.80;27.80;;;;;5.00;65.99;102766.84;2006498;28;3597140;-76
2023/01/31 01:09:45;;;;;;;;;34.00;28.00;;;;;4.98;66.23;102761.59;1992820;28;2863767;-76
2023/01/31 01:11:04;;;;;;;;;36.00;29.00;;;;;4.99;65.96;102754.66;2001182;28;3608974;-76
2023/01/31 01:12:15;;;;;;;;;34.00;29.00;;;;;4.98;66.30;102747.69;1980367;28;2855478;-76
2023/01/31 01:13:27;;;;;;;;;31.20;26.40;;;;;4.98;66.01;102747.69;1994923;28;3585616;-76
2023/01/31 01:14:39;;;;;;;;;29.67;25.33;;;;;4.97;66.19;102745.91;2022728;28;3598492;-76
2023/01/31 01:15:51;;;;;;;;;34.00;29.80;;;;;4.95;66.70;102743.28;2028072;28;3592890;-76
2023/01/31 01:17:03;;;;;;;;;33.67;29.00;;;;;4.93;66.28;102735.44;1997882;28;3595058;-76
2023/01/31 01:18:15;;;;;;;;;34.33;29.67;;;;;4.94;66.40;102742.38;1991792;28;3610680;-76
2023/01/31 01:19:26;;;;;;;;;35.00;27.00;;;;;4.92;66.04;102738.88;1992636;28;3598707;-76
2023/01/31 01:20:38;;;;;;;;;34.80;29.60;;;;;4.91;66.22;102739.72;2004904;28;3616854;-76
2023/01/31 01:21:53;;;;;;;;;31.40;25.20;;;;;4.91;66.37;102742.34;2001950;28;3598144;-76
2023/01/31 01:23:05;;;;;;;;;33.00;30.33;;;;;4.90;66.14;102743.16;1982479;28;3597070;-76
2023/01/31 01:24:18;;;;;;;;;31.67;29.00;;;;;4.90;66.54;102737.94;2016023;28;3600258;-76
2023/01/31 01:25:29;;;;;;;;;41.00;30.50;;;;;4.90;66.33;102735.34;2001082;28;2876294;-76
2023/01/31 01:26:41;;;;;;;;;32.00;27.00;;;;;4.89;66.19;102748.34;2007770;28;3594992;-76
2023/01/31 01:27:53;;;;;;;;;34.33;29.00;;;;;4.89;66.13;102743.16;2005872;28;3600724;-76
2023/01/31 01:29:05;;;;;;;;;22.00;19.33;;;;;4.87;66.27;102740.47;2000151;28;3556514;-76
2023/01/31 01:30:17;;;;;;;;;34.00;27.20;;;;;4.87;66.53;102745.69;2024032;28;3603360;-76
2023/01/31 01:31:30;;;;;;;;;31.00;23.67;;;;;4.87;66.54;102748.31;1993471;28;3591912;-76
2023/01/31 01:32:41;;;;;;;;;28.00;26.00;;;;;4.86;66.13;102754.38;1983640;28;3579387;-76
2023/01/31 01:33:53;;;;;;;;;23.80;20.00;;;;;4.86;66.29;102753.50;2027826;28;3579375;-76
2023/01/31 01:35:05;;;;;;;;;18.50;14.00;;;;;4.86;66.16;102759.59;2024336;28;2810691;-76
2023/01/31 01:36:20;;;;;;;;;27.00;26.33;;;;;4.86;66.26;102758.69;1983205;28;3583656;-76
2023/01/31 01:37:32;;;;;;;;;32.33;27.00;;;;;4.85;66.26;102757.81;2000162;28;3605462;-76
2023/01/31 01:38:44;;;;;;;;;25.67;22.33;;;;;4.84;66.20;102759.53;2021257;28;3586741;-76
2023/01/31 01:39:56;;;;;;;;;26.00;20.00;;;;;4.85;66.45;102757.81;1999047;28;2844194;-76
2023/01/31 01:41:08;;;;;;;;;25.00;16.33;;;;;4.85;66.51;102760.41;2000403;28;3579442;-76
2023/01/31 01:42:24;;;;;;;;;27.67;21.67;;;;;4.86;66.41;102762.19;2007602;28;3590185;-76
2023/01/31 01:43:51;;;;;;;;;24.67;23.00;;;;;4.86;66.84;102759.59;2007826;28;3582558;-76
2023/01/31 01:45:14;;;;;;;;;20.83;18.17;;;;;4.86;66.32;102763.91;2036939;28;1838958;-75
2023/01/31 01:46:27;;;;;;;;;14.00;12.00;;;;;4.86;66.33;102764.78;1993462;28;2804489;-76
2023/01/31 01:47:41;;;;;;;;;27.33;21.67;;;;;4.88;66.59;102767.44;2007031;28;3587723;-76
2023/01/31 01:49:11;;;;;;;;;24.33;18.67;;;;;4.87;65.99;102771.75;2004385;28;3579471;-76
2023/01/31 01:50:32;;;;;;;;;23.67;19.67;;;;;4.87;66.45;102768.25;2033281;28;1835739;-76
2023/01/31 01:51:46;;;;;;;;;24.33;19.00;;;;;4.86;66.54;102762.19;1981888;28;3584622;-76
2023/01/31 01:53:11;;;;;;;;;21.00;20.67;;;;;4.86;66.56;102764.78;2000552;28;2835745;-76
2023/01/31 01:54:34;;;;;;;;;26.00;20.00;;;;;4.86;66.49;102759.59;2015697;28;2834070;-76
2023/01/31 01:55:55;;;;;;;;;21.50;19.83;;;;;4.85;66.33;102757.81;2041114;28;1846115;-76
2023/01/31 01:57:13;;;;;;;;;27.67;22.00;;;;;4.85;66.41;102752.59;2020694;28;1846147;-76
2023/01/31 01:58:41;;;;;;;;;17.83;17.50;;;;;4.84;66.47;102762.13;2013479;28;1838903;-76
2023/01/31 02:00:04;;;;;;;;;24.80;19.20;;;;;4.85;66.74;102760.41;1999740;28;2841916;-76
2023/01/31 02:01:15;;;;;;;;;24.50;18.50;;;;;4.83;66.94;102754.28;1984437;28;2844012;-76
2023/01/31 02:02:29;;;;;;;;;20.67;17.50;;;;;4.83;66.60;102752.56;2014757;28;1842001;-76
2023/01/31 02:03:40;;;;;;;;;21.50;20.00;;;;;4.82;66.98;102753.41;1984772;28;2828375;-76
2023/01/31 02:04:51;;;;;;;;;23.00;16.67;;;;;4.82;66.59;102757.72;1974309;28;2821453;-76
2023/01/31 02:06:06;;;;;;;;;20.57;18.43;;;;;4.81;66.63;102756.88;2028210;28;1846122;-76
2023/01/31 02:07:16;;;;;;;;;22.50;17.00;;;;;4.82;66.76;102756.00;1998949;28;2832605;-76
2023/01/31 02:08:32;;;;;;;;;23.67;19.33;;;;;4.82;66.95;102747.31;1984378;28;3567940;-76
2023/01/31 02:10:00;;;;;;;;;20.14;17.29;;;;;4.82;66.87;102755.13;2028653;28;1837869;-75
2023/01/31 02:11:29;;;;;;;;;21.80;18.00;;;;;4.81;67.03;102750.78;2026986;28;2827313;-75
2023/01/31 02:12:40;;;;;;;;;20.00;17.50;;;;;4.81;66.86;102750.78;1989294;28;2833610;-75
2023/01/31 02:13:59;;;;;;;;;18.33;16.67;;;;;4.79;67.12;102749.88;1985372;28;2827309;-75
2023/01/31 02:15:10;;;;;;;;;16.33;15.33;;;;;4.80;67.07;102754.22;1999167;28;2810051;-76
2023/01/31 02:16:21;;;;;;;;;21.00;21.00;;;;;4.79;66.85;102747.25;2000144;28;2839868;-75
2023/01/31 02:17:32;;;;;;;;;18.67;12.33;;;;;4.78;66.98;102750.69;2021052;28;1850357;-76
2023/01/31 02:18:44;;;;;;;;;17.00;16.67;;;;;4.78;66.62;102755.91;1993027;28;2820096;-76
2023/01/31 02:20:10;;;;;;;;;20.67;18.67;;;;;4.78;66.80;102748.97;2011612;28;2826388;-76
2023/01/31 02:21:58;;;;;;;;;19.33;18.33;;;;;4.78;66.65;102750.69;2007637;28;2825319;-76
2023/01/31 02:23:27;;;;;;;;;17.00;16.50;;;;;4.77;66.82;102738.50;2007420;28;2831515;-76
2023/01/31 02:25:14;;;;;;;;;20.00;15.33;;;;;4.75;66.83;102737.59;1976382;28;3546083;-76
2023/01/31 02:26:28;;;;;;;;;20.00;16.50;;;;;4.73;66.77;102735.84;1982700;28;2822153;-76
2023/01/31 02:28:11;;;;;;;;;20.67;19.00;;;;;4.72;66.43;102741.88;1985131;28;2833053;-76
2023/01/31 02:29:39;;;;;;;;;20.00;17.50;;;;;4.70;66.80;102740.97;2016892;28;2834042;-76
2023/01/31 02:31:07;;;;;;;;;17.50;17.00;;;;;4.69;66.76;102744.41;1985782;28;2827338;-76
2023/01/31 02:32:38;;;;;;;;;21.40;18.40;;;;;4.67;66.81;102747.81;2007226;28;2827302;-75
2023/01/31 02:34:25;;;;;;;;;23.67;20.33;;;;;4.66;66.76;102746.97;1985525;28;3579430;-75
2023/01/31 02:36:07;;;;;;;;;21.33;17.67;;;;;4.64;66.77;102756.47;2004691;28;1829007;-75
2023/01/31 02:37:32;;;;;;;;;20.00;17.17;;;;;4.64;66.50;102753.84;2005623;28;1839925;-75
2023/01/31 02:39:06;;;;;;;;;25.50;18.50;;;;;4.63;66.79;102746.88;1977668;28;2826288;-76
2023/01/31 02:40:26;;;;;;;;;25.00;20.67;;;;;4.61;66.62;102749.44;1979302;28;3573177;-75
2023/01/31 02:41:56;;;;;;;;;25.00;20.33;;;;;4.60;66.64;102750.28;1999102;28;3571042;-75
2023/01/31 02:43:19;;;;;;;;;18.33;17.67;;;;;4.58;66.38;102751.09;2005771;28;3564847;-75
2023/01/31 02:44:59;;;;;;;;;21.60;18.80;;;;;4.58;66.78;102751.09;2027703;28;2833588;-75
2023/01/31 02:46:17;;;;;;;;;22.67;20.67;;;;;4.56;66.61;102750.16;1984531;28;3580432;-75
2023/01/31 02:47:54;;;;;;;;;21.00;19.33;;;;;4.56;66.70;102760.59;2002346;28;2837753;-75
2023/01/31 02:49:58;;;;;;;;;20.67;20.00;;;;;4.55;66.67;102762.31;1957140;28;3589804;-76
2023/01/31 02:51:14;;;;;;;;;22.00;17.00;;;;;4.53;66.39;102755.28;1997070;28;3563778;-75
2023/01/31 02:52:48;;;;;;;;;27.00;21.33;;;;;4.52;66.52;102757.00;2014868;28;3580464;-75
2023/01/31 02:54:12;;;;;;;;;21.67;19.33;;;;;4.50;66.75;102761.31;2002159;28;3575231;-76
2023/01/31 02:57:01;;;;;;;;;33.00;22.33;;;;;4.49;66.80;102762.16;2008761;28;3610994;-76
2023/01/31 02:58:15;;;;;;;;;18.00;15.00;;;;;4.48;66.66;102758.66;1986588;28;2823178;-76
2023/01/31 02:59:30;;;;;;;;;19.50;17.17;;;;;4.47;66.42;102750.84;2014463;28;1835765;-76
2023/01/31 03:00:45;;;;;;;;;25.67;21.67;;;;;4.47;66.72;102748.22;1985945;28;3600234;-76
2023/01/31 03:02:01;;;;;;;;;25.67;22.33;;;;;4.47;66.88;102745.63;2008759;28;3579402;-76
2023/01/31 03:03:20;;;;;;;;;30.33;24.00;;;;;4.46;66.55;102749.06;2008529;28;3584633;-76
2023/01/31 03:04:35;;;;;;;;;30.33;25.00;;;;;4.45;66.69;102750.78;2008773;28;3590841;-76
2023/01/31 03:06:22;;;;;;;;;19.67;17.00;;;;;4.44;66.54;102751.63;2038450;28;1835700;-76
2023/01/31 03:07:38;;;;;;;;;29.33;24.33;;;;;4.44;66.29;102750.75;1993551;28;3592134;-76
2023/01/31 03:09:05;;;;;;;;;20.83;18.00;;;;;4.41;66.44;102745.44;2020424;28;1839928;-76
2023/01/31 03:10:38;;;;;;;;;25.33;23.33;;;;;4.40;66.85;102754.97;1998675;28;3589838;-76
2023/01/31 03:12:05;;;;;;;;;24.00;22.00;;;;;4.38;66.71;102754.94;1992347;28;3574202;-76
2023/01/31 03:13:47;;;;;;;;;25.00;23.00;;;;;4.38;66.81;102746.25;2016683;28;3585659;-76
2023/01/31 03:15:07;;;;;;;;;22.50;18.67;;;;;4.36;66.34;102745.34;2045387;28;1836843;-76
2023/01/31 03:18:22;;;;;;;;;25.00;22.00;;;;;4.33;66.58;102740.03;1989977;28;3584626;-76
2023/01/31 03:19:43;;;;;;;;;22.67;21.00;;;;;4.32;66.68;102751.31;2008021;28;2830587;-76
2023/01/31 03:20:59;;;;;;;;;21.33;21.33;;;;;4.31;66.54;102755.63;2006093;28;3579411;-75
2023/01/31 03:22:15;;;;;;;;;24.00;20.67;;;;;4.28;66.39;102751.22;2007816;28;3583616;-76
2023/01/31 03:23:32;;;;;;;;;23.80;21.40;;;;;4.27;66.61;102749.44;2027341;28;2841896;-75
2023/01/31 03:24:46;;;;;;;;;24.67;22.00;;;;;4.28;66.39;102747.75;1990788;28;3579348;-76
2023/01/31 03:26:00;;;;;;;;;28.00;23.67;;;;;4.27;66.29;102744.25;2021007;28;3573148;-75
2023/01/31 03:27:12;;;;;;;;;24.00;20.33;;;;;4.26;66.62;102746.81;2008236;28;3580392;-75
2023/01/31 03:28:27;;;;;;;;;23.00;22.00;;;;;4.25;66.76;102756.34;2004257;28;2832570;-75
2023/01/31 03:29:40;;;;;;;;;24.33;23.00;;;;;4.25;66.32;102756.34;1991909;28;3578353;-76
2023/01/31 03:31:00;;;;;;;;;25.00;22.33;;;;;4.23;66.22;102752.81;2007890;28;3583561;-76
2023/01/31 03:32:19;;;;;;;;;16.50;14.50;;;;;4.23;66.92;102760.63;2010412;28;2802346;-76
2023/01/31 03:33:36;;;;;;;;;0.00;0.00;;;;;4.23;66.57;102754.53;2046524;28;2725625;-76
2023/01/31 03:34:52;;;;;;;;;22.17;18.67;;;;;4.22;66.05;102753.66;2037115;28;1844042;-75
2023/01/31 03:36:25;;;;;;;;;29.67;23.67;;;;;4.21;66.70;102764.94;1986635;28;3597105;-75
2023/01/31 03:37:46;;;;;;;;;30.00;25.00;;;;;4.19;66.50;102756.19;2007783;28;3583592;-76
2023/01/31 03:39:48;;;;;;;;;22.00;21.00;;;;;4.19;66.30;102761.41;2029044;28;2830423;-76
2023/01/31 03:41:09;;;;;;;;;25.00;23.00;;;;;4.19;66.70;102761.41;1946246;28;3587734;-76
2023/01/31 03:42:29;;;;;;;;;27.00;24.00;;;;;4.17;66.74;102752.69;1968153;28;3577885;-76
2023/01/31 03:44:05;;;;;;;;;28.67;25.00;;;;;4.16;66.71;102757.00;2007158;28;3584621;-76
2023/01/31 03:45:33;;;;;;;;;22.67;22.00;;;;;4.15;66.75;102762.16;2015529;28;3573156;-75
2023/01/31 03:46:55;;;;;;;;;31.00;23.00;;;;;4.14;66.72;102752.59;2011452;28;3611002;-75
2023/01/31 03:48:13;;;;;;;;;26.33;22.67;;;;;4.14;66.39;102763.00;1984339;28;3585680;-75
2023/01/31 03:49:27;;;;;;;;;23.67;22.33;;;;;4.12;66.56;102754.28;2015134;28;3583689;-76
2023/01/31 03:50:43;;;;;;;;;26.00;24.00;;;;;4.12;66.42;102759.47;2024628;28;3580463;-76
2023/01/31 03:52:03;;;;;;;;;26.67;23.33;;;;;4.12;66.76;102762.09;2018344;28;3580445;-75
2023/01/31 03:53:40;;;;;;;;;25.67;24.00;;;;;4.10;66.69;102761.16;2016534;28;3570007;-75
2023/01/31 03:54:59;;;;;;;;;31.67;24.33;;;;;4.11;66.31;102769.00;2003903;28;3588766;-75
2023/01/31 03:56:17;;;;;;;;;22.50;17.17;;;;;4.09;67.25;102764.59;2045666;28;1841936;-76
2023/01/31 03:57:33;;;;;;;;;26.50;23.50;;;;;4.10;66.70;102763.78;1986148;28;2847212;-75
2023/01/31 03:58:49;;;;;;;;;27.00;22.00;;;;;4.12;66.68;102764.69;2003093;28;2845049;-75
2023/01/31 04:00:06;;;;;;;;;26.00;23.67;;;;;4.12;66.78;102760.38;2015737;28;3584606;-76
2023/01/31 04:01:24;;;;;;;;;19.83;17.83;;;;;4.12;67.27;102757.75;2041569;28;1836747;-76
2023/01/31 04:02:37;;;;;;;;;25.00;22.00;;;;;4.12;67.05;102752.56;1987043;28;3590878;-76
2023/01/31 04:04:00;;;;;;;;;20.00;16.00;;;;;4.12;67.04;102749.97;2016220;28;2808615;-76
2023/01/31 04:05:18;;;;;;;;;25.00;21.17;;;;;4.14;67.28;102755.19;2022098;28;1837835;-76
2023/01/31 04:06:30;;;;;;;;;18.00;16.00;;;;;4.13;67.39;102756.91;1993437;28;2820393;-76
2023/01/31 04:07:40;;;;;;;;;16.00;14.50;;;;;4.16;67.59;102756.09;2016461;28;2821079;-76
2023/01/31 04:08:51;;;;;;;;;19.50;16.00;;;;;4.16;67.78;102754.41;2015532;28;2811673;-76
2023/01/31 04:10:11;;;;;;;;;18.50;13.50;;;;;4.18;67.79;102759.63;2025538;28;2806942;-76
2023/01/31 04:11:24;;;;;;;;;18.50;16.50;;;;;4.19;67.52;102755.31;1987223;28;2829850;-76
2023/01/31 04:12:36;;;;;;;;;18.00;16.00;;;;;4.21;67.89;102767.53;2001679;28;2822150;-76
2023/01/31 04:13:50;;;;;;;;;19.14;16.14;;;;;4.21;68.45;102761.44;2022377;28;1846112;-76
2023/01/31 04:15:05;;;;;;;;;23.43;15.14;;;;;4.25;68.11;102771.06;2040965;28;1840463;-75
2023/01/31 04:16:16;;;;;;;;;18.50;17.50;;;;;4.27;67.96;102772.03;2015767;28;2823655;-75
2023/01/31 04:17:27;;;;;;;;;19.75;17.25;;;;;4.28;68.15;102766.84;2018150;28;1839819;-75
2023/01/31 04:18:40;;;;;;;;;10.67;7.50;;;;;4.30;68.08;102760.81;2019054;28;2755434;-76
2023/01/31 04:19:50;;;;;;;;;17.00;17.00;;;;;4.31;68.07;102760.84;1995189;28;2809586;-76
2023/01/31 04:21:02;;;;;;;;;24.00;18.00;;;;;4.33;68.15;102753.94;2017380;28;2834636;-76
2023/01/31 04:22:13;;;;;;;;;15.20;15.20;;;;;4.35;67.79;102764.41;2020112;28;1831602;-76
2023/01/31 04:23:27;;;;;;;;;24.71;19.00;;;;;4.36;67.61;102759.25;2043291;28;1846079;-76
2023/01/31 04:24:38;;;;;;;;;16.50;15.00;;;;;4.38;68.02;102756.66;2010739;28;2815930;-76
2023/01/31 04:25:54;;;;;;;;;24.00;20.33;;;;;4.38;68.17;102759.28;2024628;28;2837753;-76
2023/01/31 04:27:04;;;;;;;;;17.00;17.00;;;;;4.40;68.02;102762.78;1993372;28;2818997;-76
2023/01/31 04:28:16;;;;;;;;;25.00;18.00;;;;;4.41;67.68;102761.97;2012816;28;2828364;-76
2023/01/31 04:29:27;;;;;;;;;18.00;16.00;;;;;4.43;68.01;102764.59;2010375;28;2812750;-76
2023/01/31 04:30:38;;;;;;;;;19.50;15.50;;;;;4.45;68.19;102762.91;2002969;28;2828386;-76
2023/01/31 04:31:50;;;;;;;;;17.20;15.20;;;;;4.45;67.80;102762.91;2020359;28;1835718;-76
2023/01/31 04:33:00;;;;;;;;;14.00;12.00;;;;;4.46;68.43;102759.47;2007624;28;2809689;-76
2023/01/31 04:34:12;;;;;;;;;20.67;15.00;;;;;4.45;67.98;102758.59;2025717;28;3554387;-76
2023/01/31 04:35:23;;;;;;;;;14.67;10.67;;;;;4.47;68.06;102762.09;2028327;28;3516199;-76
2023/01/31 04:36:34;;;;;;;;;20.00;16.00;;;;;4.48;68.10;102763.00;2032089;28;2814831;-76
2023/01/31 04:37:45;;;;;;;;;15.00;13.00;;;;;4.49;67.95;102762.16;2002141;28;2803368;-76
2023/01/31 04:38:56;;;;;;;;;18.00;15.00;;;;;4.49;68.14;102763.03;2033758;28;2812775;-76
2023/01/31 04:40:12;;;;;;;;;18.50;16.50;;;;;4.51;68.24;102768.28;2031917;28;2824263;-75
2023/01/31 04:41:23;;;;;;;;;12.50;11.50;;;;;4.52;68.04;102763.97;2016404;28;2789835;-75
2023/01/31 04:42:34;;;;;;;;;18.50;13.00;;;;;4.53;67.94;102760.50;2021917;28;2812766;-76
2023/01/31 04:43:45;;;;;;;;;17.00;15.50;;;;;4.53;68.29;102757.91;2011211;28;2814795;-76
2023/01/31 04:44:56;;;;;;;;;10.00;8.33;;;;;4.53;68.49;102766.59;2019762;28;2747187;-76
2023/01/31 04:46:07;;;;;;;;;18.50;13.00;;;;;4.54;68.27;102760.56;1994775;28;2806528;-76
2023/01/31 04:47:18;;;;;;;;;15.20;13.80;;;;;4.56;67.90;102765.81;2018698;28;1827376;-76
2023/01/31 04:48:29;;;;;;;;;16.50;13.00;;;;;4.56;68.22;102765.81;1987314;28;2815872;-76
2023/01/31 04:49:42;;;;;;;;;11.50;9.50;;;;;4.56;68.50;102773.63;2013613;28;1844064;-76
2023/01/31 04:50:53;;;;;;;;;19.50;16.50;;;;;4.55;67.90;102780.53;2008260;28;2821107;-76
2023/01/31 04:52:04;;;;;;;;;15.50;15.50;;;;;4.57;68.03;102784.06;2009710;28;2818969;-76
2023/01/31 04:53:15;;;;;;;;;17.00;13.00;;;;;4.57;68.46;102773.63;2033374;28;2816935;-76
2023/01/31 04:54:26;;;;;;;;;15.50;12.00;;;;;4.59;68.44;102766.75;2021949;28;1835726;-76
2023/01/31 04:55:37;;;;;;;;;21.00;13.50;;;;;4.61;68.30;102758.97;2001610;28;2802383;-76
2023/01/31 04:56:48;;;;;;;;;19.00;14.00;;;;;4.61;67.83;102753.78;2000970;28;2823187;-76
2023/01/31 04:57:59;;;;;;;;;13.50;13.50;;;;;4.62;68.11;102755.53;2024904;28;2814866;-76
2023/01/31 04:59:10;;;;;;;;;15.75;15.25;;;;;4.63;68.18;102757.28;2043796;28;1838332;-76
2023/01/31 05:00:21;;;;;;;;;17.75;14.25;;;;;4.64;68.08;102752.97;2013109;28;1837907;-76
2023/01/31 05:01:32;;;;;;;;;13.67;12.67;;;;;4.63;67.91;102754.69;2012279;28;3518430;-76
2023/01/31 05:02:43;;;;;;;;;13.00;12.00;;;;;4.63;68.22;102754.69;2023858;28;2786730;-76
2023/01/31 05:03:54;;;;;;;;;14.00;12.00;;;;;4.65;68.46;102757.31;2001427;28;2792939;-76
2023/01/31 05:05:06;;;;;;;;;8.33;8.33;;;;;4.65;68.36;102753.00;2044152;28;2737766;-76
2023/01/31 05:06:16;;;;;;;;;11.00;9.00;;;;;4.65;68.20;102754.72;1987362;28;2758578;-76
2023/01/31 05:07:27;;;;;;;;;13.00;10.67;;;;;4.65;68.50;102754.72;2017385;28;2776368;-76
2023/01/31 05:08:38;;;;;;;;;15.00;10.00;;;;;4.64;67.86;102755.56;2027912;28;2796096;-75
2023/01/31 05:09:49;;;;;;;;;18.50;12.00;;;;;4.63;68.35;102759.00;2024925;28;2802397;-75
2023/01/31 05:11:04;;;;;;;;;18.00;12.00;;;;;4.64;68.31;102758.19;2027480;28;2817970;-75
2023/01/31 05:12:15;;;;;;;;;12.75;11.25;;;;;4.65;68.53;102750.38;2007176;28;1846072;-76
2023/01/31 05:13:28;;;;;;;;;17.00;13.00;;;;;4.66;68.46;102748.69;2015298;28;2823557;-76
2023/01/31 05:14:39;;;;;;;;;14.50;14.00;;;;;4.65;68.28;102745.19;1991894;28;2791946;-76
2023/01/31 05:15:50;;;;;;;;;12.00;11.33;;;;;4.67;68.32;102742.59;2034316;28;3513787;-76
2023/01/31 05:17:01;;;;;;;;;9.33;6.67;;;;;4.68;68.36;102744.38;2033316;28;2759707;-76
2023/01/31 05:18:12;;;;;;;;;16.33;12.00;;;;;4.68;67.92;102742.66;2020937;28;3547116;-76
2023/01/31 05:19:23;;;;;;;;;18.75;13.00;;;;;4.69;68.01;102739.19;2042289;28;1827426;-76
2023/01/31 05:20:38;;;;;;;;;15.00;15.00;;;;;4.66;68.00;102739.16;1985652;28;2805471;-76
2023/01/31 05:21:57;;;;;;;;;16.33;13.00;;;;;4.67;68.07;102742.59;2007187;28;3535690;-76
2023/01/31 05:23:12;;;;;;;;;10.50;8.33;;;;;4.68;68.20;102745.25;2037474;28;2770115;-76
2023/01/31 05:24:23;;;;;;;;;16.00;13.00;;;;;4.67;67.88;102734.78;1983532;28;2809645;-76
2023/01/31 05:25:36;;;;;;;;;14.50;13.75;;;;;4.67;68.31;102733.06;2027376;28;1846086;-76
2023/01/31 05:26:46;;;;;;;;;12.00;11.67;;;;;4.68;67.72;102733.97;1999140;28;3508592;-76
2023/01/31 05:27:58;;;;;;;;;18.00;13.25;;;;;4.66;67.82;102731.31;2030637;28;1858649;-76
2023/01/31 05:29:09;;;;;;;;;14.00;12.50;;;;;4.67;68.05;102735.69;2015444;28;2798196;-76
2023/01/31 05:30:22;;;;;;;;;21.00;13.00;;;;;4.66;67.62;102731.31;2009018;28;2831488;-76
2023/01/31 05:31:33;;;;;;;;;18.67;12.00;;;;;4.66;67.64;102735.66;1992485;28;3521031;-76
2023/01/31 05:32:46;;;;;;;;;18.00;15.50;;;;;4.66;67.62;102740.88;2012136;28;2810676;-76
2023/01/31 05:33:56;;;;;;;;;17.50;13.00;;;;;4.64;67.34;102748.66;1991739;28;2823202;-76
2023/01/31 05:35:07;;;;;;;;;12.50;11.00;;;;;4.64;67.61;102746.03;2010691;28;2788799;-76
2023/01/31 05:36:18;;;;;;;;;18.50;15.50;;;;;4.63;67.49;102740.78;2032151;28;2834672;-76
2023/01/31 05:37:30;;;;;;;;;15.00;15.00;;;;;4.63;67.63;102741.66;2008833;28;2802338;-76
2023/01/31 05:38:41;;;;;;;;;16.50;13.50;;;;;4.61;67.69;102739.03;2024411;28;2808634;-76
2023/01/31 05:39:52;;;;;;;;;13.50;12.50;;;;;4.61;67.79;102738.16;2009826;28;2808576;-76
2023/01/31 05:41:03;;;;;;;;;19.00;13.00;;;;;4.60;67.56;102750.28;2033426;28;2823174;-76
2023/01/31 05:42:14;;;;;;;;;17.50;12.00;;;;;4.59;67.17;102745.03;2006842;28;2823541;-76
2023/01/31 05:43:25;;;;;;;;;15.50;12.00;;;;;4.58;67.68;102745.88;2002247;28;2799252;-76
2023/01/31 05:44:36;;;;;;;;;14.00;12.00;;;;;4.58;67.75;102748.47;2026641;28;3522097;-76
2023/01/31 05:45:48;;;;;;;;;14.50;13.00;;;;;4.56;67.80;102744.97;2026030;28;2808627;-76